sensor_id;sensor_type;location;lat;lon;timestamp;temperature;humidity
15364;DHT22;7781;49.690;6.472;2022-08-02T00:00:40;15.80;99.90
15364;DHT22;7781;49.690;6.472;2022-08-02T00:03:08;15.70;99.90
15364;DHT22;7781;49.690;6.472;2022-08-02T00:05:37;15.70;99.90
15364;DHT22;7781;49.690;6.472;2022-08-02T00:08:06;15.60;99.90
15364;DHT22;7781;49.690;6.472;2022-08-02T00:10:34;15.60;99.90
15364;DHT22;7781;49.690;6.472;2022-08-02T00:13:02;15.60;99.90
15364;DHT22;7781;49.690;6.472;2022-08-02T00:15:31;15.50;99.90
15364;DHT22;7781;49.690;6.472;2022-08-02T00:18:00;15.50;99.90
15364;DHT22;7781;49.690;6.472;2022-08-02T00:20:29;15.40;99.90
15364;DHT22;7781;49.690;6.472;2022-08-02T00:22:57;15.30;99.90
15364;DHT22;7781;49.690;6.472;2022-08-02T00:25:25;15.30;99.90
15364;DHT22;7781;49.690;6.472;2022-08-02T00:27:53;15.20;99.90
15364;DHT22;7781;49.690;6.472;2022-08-02T00:30:21;15.20;99.90
15364;DHT22;7781;49.690;6.472;2022-08-02T00:32:49;15.10;99.90
15364;DHT22;7781;49.690;6.472;2022-08-02T00:35:19;15.00;99.90
15364;DHT22;7781;49.690;6.472;2022-08-02T00:37:48;15.00;99.90
15364;DHT22;7781;49.690;6.472;2022-08-02T00:40:21;15.00;99.90
15364;DHT22;7781;49.690;6.472;2022-08-02T00:43:00;14.90;99.90
15364;DHT22;7781;49.690;6.472;2022-08-02T00:45:30;14.90;99.90
15364;DHT22;7781;49.690;6.472;2022-08-02T00:48:18;14.90;99.90
15364;DHT22;7781;49.690;6.472;2022-08-02T00:50:47;14.80;99.90
15364;DHT22;7781;49.690;6.472;2022-08-02T00:53:16;14.90;99.90
15364;DHT22;7781;49.690;6.472;2022-08-02T00:55:44;14.90;99.90
15364;DHT22;7781;49.690;6.472;2022-08-02T00:58:12;15.00;99.90
15364;DHT22;7781;49.690;6.472;2022-08-02T01:00:40;14.90;99.90
15364;DHT22;7781;49.690;6.472;2022-08-02T01:03:08;14.90;99.90
15364;DHT22;7781;49.690;6.472;2022-08-02T01:05:36;14.90;99.90
15364;DHT22;7781;49.690;6.472;2022-08-02T01:08:26;14.90;99.90
15364;DHT22;7781;49.690;6.472;2022-08-02T01:10:55;14.90;99.90
15364;DHT22;7781;49.690;6.472;2022-08-02T01:13:24;15.00;99.90
15364;DHT22;7781;49.690;6.472;2022-08-02T01:16:01;14.90;99.90
15364;DHT22;7781;49.690;6.472;2022-08-02T01:18:37;14.90;99.90
15364;DHT22;7781;49.690;6.472;2022-08-02T01:21:25;14.90;99.90
15364;DHT22;7781;49.690;6.472;2022-08-02T01:24:11;14.90;99.90
15364;DHT22;7781;49.690;6.472;2022-08-02T01:26:49;14.90;99.90
15364;DHT22;7781;49.690;6.472;2022-08-02T01:29:24;14.90;99.90
15364;DHT22;7781;49.690;6.472;2022-08-02T01:31:58;14.80;99.90
15364;DHT22;7781;49.690;6.472;2022-08-02T01:34:33;14.70;99.90
15364;DHT22;7781;49.690;6.472;2022-08-02T01:37:08;14.70;99.90
15364;DHT22;7781;49.690;6.472;2022-08-02T01:39:39;14.70;99.90
15364;DHT22;7781;49.690;6.472;2022-08-02T01:42:10;14.80;99.90
15364;DHT22;7781;49.690;6.472;2022-08-02T01:44:42;14.80;99.90
15364;DHT22;7781;49.690;6.472;2022-08-02T01:47:16;14.80;99.90
15364;DHT22;7781;49.690;6.472;2022-08-02T01:49:48;14.80;99.90
15364;DHT22;7781;49.690;6.472;2022-08-02T01:52:18;14.70;99.90
15364;DHT22;7781;49.690;6.472;2022-08-02T01:54:56;14.70;99.90
15364;DHT22;7781;49.690;6.472;2022-08-02T01:57:26;14.70;99.90
15364;DHT22;7781;49.690;6.472;2022-08-02T01:59:58;14.70;99.90
15364;DHT22;7781;49.690;6.472;2022-08-02T02:02:30;14.70;99.90
15364;DHT22;7781;49.690;6.472;2022-08-02T02:05:00;14.70;99.90
15364;DHT22;7781;49.690;6.472;2022-08-02T02:07:30;14.70;99.90
15364;DHT22;7781;49.690;6.472;2022-08-02T02:10:02;14.70;99.90
15364;DHT22;7781;49.690;6.472;2022-08-02T02:12:32;14.60;99.90
15364;DHT22;7781;49.690;6.472;2022-08-02T02:15:04;14.60;99.90
15364;DHT22;7781;49.690;6.472;2022-08-02T02:17:34;14.70;99.90
15364;DHT22;7781;49.690;6.472;2022-08-02T02:20:23;14.70;99.90
15364;DHT22;7781;49.690;6.472;2022-08-02T02:22:51;14.60;99.90
15364;DHT22;7781;49.690;6.472;2022-08-02T02:25:21;14.60;99.90
15364;DHT22;7781;49.690;6.472;2022-08-02T02:28:06;14.50;99.90
15364;DHT22;7781;49.690;6.472;2022-08-02T02:30:42;14.50;99.90
15364;DHT22;7781;49.690;6.472;2022-08-02T02:33:13;14.50;99.90
15364;DHT22;7781;49.690;6.472;2022-08-02T02:35:46;14.50;99.90
15364;DHT22;7781;49.690;6.472;2022-08-02T02:38:18;14.40;99.90
15364;DHT22;7781;49.690;6.472;2022-08-02T02:40:47;14.40;99.90
15364;DHT22;7781;49.690;6.472;2022-08-02T02:43:16;14.30;99.90
15364;DHT22;7781;49.690;6.472;2022-08-02T02:45:46;14.40;99.90
15364;DHT22;7781;49.690;6.472;2022-08-02T02:48:15;14.40;99.90
15364;DHT22;7781;49.690;6.472;2022-08-02T02:50:44;14.40;99.90
15364;DHT22;7781;49.690;6.472;2022-08-02T02:53:16;14.40;99.90
15364;DHT22;7781;49.690;6.472;2022-08-02T02:55:46;14.30;99.90
15364;DHT22;7781;49.690;6.472;2022-08-02T02:58:29;14.30;99.90
15364;DHT22;7781;49.690;6.472;2022-08-02T03:00:59;14.30;99.90
15364;DHT22;7781;49.690;6.472;2022-08-02T03:03:45;14.40;99.90
15364;DHT22;7781;49.690;6.472;2022-08-02T03:06:14;14.40;99.90
15364;DHT22;7781;49.690;6.472;2022-08-02T03:08:42;14.40;99.90
15364;DHT22;7781;49.690;6.472;2022-08-02T03:11:13;14.40;99.90
15364;DHT22;7781;49.690;6.472;2022-08-02T03:13:41;14.50;99.90
15364;DHT22;7781;49.690;6.472;2022-08-02T03:16:11;14.40;99.90
15364;DHT22;7781;49.690;6.472;2022-08-02T03:18:41;14.40;99.90
15364;DHT22;7781;49.690;6.472;2022-08-02T03:21:11;14.30;99.90
15364;DHT22;7781;49.690;6.472;2022-08-02T03:23:41;14.30;99.90
15364;DHT22;7781;49.690;6.472;2022-08-02T03:26:09;14.20;99.90
15364;DHT22;7781;49.690;6.472;2022-08-02T03:28:39;14.20;99.90
15364;DHT22;7781;49.690;6.472;2022-08-02T03:31:07;14.20;99.90
15364;DHT22;7781;49.690;6.472;2022-08-02T03:33:37;14.20;99.90
15364;DHT22;7781;49.690;6.472;2022-08-02T03:36:09;14.20;99.90
15364;DHT22;7781;49.690;6.472;2022-08-02T03:38:38;14.20;99.90
15364;DHT22;7781;49.690;6.472;2022-08-02T03:41:10;14.30;99.90
15364;DHT22;7781;49.690;6.472;2022-08-02T03:43:40;14.20;99.90
15364;DHT22;7781;49.690;6.472;2022-08-02T03:46:10;14.10;99.90
15364;DHT22;7781;49.690;6.472;2022-08-02T03:48:40;14.10;99.90
15364;DHT22;7781;49.690;6.472;2022-08-02T03:51:10;14.10;99.90
15364;DHT22;7781;49.690;6.472;2022-08-02T03:53:38;14.10;99.90
15364;DHT22;7781;49.690;6.472;2022-08-02T03:56:08;14.10;99.90
15364;DHT22;7781;49.690;6.472;2022-08-02T03:58:37;14.10;99.90
15364;DHT22;7781;49.690;6.472;2022-08-02T04:01:05;14.10;99.90
15364;DHT22;7781;49.690;6.472;2022-08-02T04:03:34;14.10;99.90
15364;DHT22;7781;49.690;6.472;2022-08-02T04:06:03;14.10;99.90
15364;DHT22;7781;49.690;6.472;2022-08-02T04:08:32;14.10;99.90
15364;DHT22;7781;49.690;6.472;2022-08-02T04:11:05;14.10;99.90
15364;DHT22;7781;49.690;6.472;2022-08-02T04:13:51;14.00;99.90
15364;DHT22;7781;49.690;6.472;2022-08-02T04:16:28;14.00;99.90
15364;DHT22;7781;49.690;6.472;2022-08-02T04:19:01;14.00;99.90
15364;DHT22;7781;49.690;6.472;2022-08-02T04:21:34;13.90;99.90
15364;DHT22;7781;49.690;6.472;2022-08-02T04:24:21;13.90;99.90
15364;DHT22;7781;49.690;6.472;2022-08-02T04:26:52;14.00;99.90
15364;DHT22;7781;49.690;6.472;2022-08-02T04:29:34;14.00;99.90
15364;DHT22;7781;49.690;6.472;2022-08-02T04:32:04;14.00;99.90
15364;DHT22;7781;49.690;6.472;2022-08-02T04:34:33;14.00;99.90
15364;DHT22;7781;49.690;6.472;2022-08-02T04:37:03;14.00;99.90
15364;DHT22;7781;49.690;6.472;2022-08-02T04:39:31;14.10;99.90
15364;DHT22;7781;49.690;6.472;2022-08-02T04:41:59;14.00;99.90
15364;DHT22;7781;49.690;6.472;2022-08-02T04:44:27;14.00;99.90
15364;DHT22;7781;49.690;6.472;2022-08-02T04:46:55;14.00;99.90
15364;DHT22;7781;49.690;6.472;2022-08-02T04:49:28;14.00;99.90
15364;DHT22;7781;49.690;6.472;2022-08-02T04:51:56;14.10;99.90
15364;DHT22;7781;49.690;6.472;2022-08-02T04:54:28;14.10;99.90
15364;DHT22;7781;49.690;6.472;2022-08-02T04:56:56;14.10;99.90
15364;DHT22;7781;49.690;6.472;2022-08-02T04:59:24;14.10;99.90
15364;DHT22;7781;49.690;6.472;2022-08-02T05:01:52;14.10;99.90
15364;DHT22;7781;49.690;6.472;2022-08-02T05:04:20;14.10;99.90
15364;DHT22;7781;49.690;6.472;2022-08-02T05:06:49;14.10;99.90
15364;DHT22;7781;49.690;6.472;2022-08-02T05:09:17;14.10;99.90
15364;DHT22;7781;49.690;6.472;2022-08-02T05:11:46;14.10;99.90
15364;DHT22;7781;49.690;6.472;2022-08-02T05:14:21;14.10;99.90
15364;DHT22;7781;49.690;6.472;2022-08-02T05:16:49;14.20;99.90
15364;DHT22;7781;49.690;6.472;2022-08-02T05:19:17;14.20;99.90
15364;DHT22;7781;49.690;6.472;2022-08-02T05:21:45;14.30;99.90
15364;DHT22;7781;49.690;6.472;2022-08-02T05:24:13;14.40;99.90
15364;DHT22;7781;49.690;6.472;2022-08-02T05:26:41;14.40;99.90
15364;DHT22;7781;49.690;6.472;2022-08-02T05:29:11;14.50;99.90
15364;DHT22;7781;49.690;6.472;2022-08-02T05:31:39;14.60;99.90
15364;DHT22;7781;49.690;6.472;2022-08-02T05:34:07;14.70;99.90
15364;DHT22;7781;49.690;6.472;2022-08-02T05:36:38;14.80;99.90
15364;DHT22;7781;49.690;6.472;2022-08-02T05:39:08;14.90;99.90
15364;DHT22;7781;49.690;6.472;2022-08-02T05:41:40;14.90;99.90
15364;DHT22;7781;49.690;6.472;2022-08-02T05:44:09;15.00;99.90
15364;DHT22;7781;49.690;6.472;2022-08-02T05:46:38;15.10;99.90
15364;DHT22;7781;49.690;6.472;2022-08-02T05:49:06;15.20;99.90
15364;DHT22;7781;49.690;6.472;2022-08-02T05:51:36;15.30;99.90
15364;DHT22;7781;49.690;6.472;2022-08-02T05:54:11;15.30;99.90
15364;DHT22;7781;49.690;6.472;2022-08-02T05:56:46;15.50;99.90
15364;DHT22;7781;49.690;6.472;2022-08-02T05:59:22;15.50;99.90
15364;DHT22;7781;49.690;6.472;2022-08-02T06:01:56;15.70;99.90
15364;DHT22;7781;49.690;6.472;2022-08-02T06:04:30;15.70;99.90
15364;DHT22;7781;49.690;6.472;2022-08-02T06:07:01;15.80;99.90
15364;DHT22;7781;49.690;6.472;2022-08-02T06:09:32;15.90;99.90
15364;DHT22;7781;49.690;6.472;2022-08-02T06:12:02;16.00;99.90
15364;DHT22;7781;49.690;6.472;2022-08-02T06:14:32;16.00;99.90
15364;DHT22;7781;49.690;6.472;2022-08-02T06:17:02;16.10;99.90
15364;DHT22;7781;49.690;6.472;2022-08-02T06:19:31;16.10;99.90
15364;DHT22;7781;49.690;6.472;2022-08-02T06:22:18;16.20;99.90
15364;DHT22;7781;49.690;6.472;2022-08-02T06:25:03;16.30;99.90
15364;DHT22;7781;49.690;6.472;2022-08-02T06:27:32;16.40;99.90
15364;DHT22;7781;49.690;6.472;2022-08-02T06:30:01;16.40;99.90
15364;DHT22;7781;49.690;6.472;2022-08-02T06:32:31;16.50;99.90
15364;DHT22;7781;49.690;6.472;2022-08-02T06:35:00;16.50;99.90
15364;DHT22;7781;49.690;6.472;2022-08-02T06:37:36;16.50;99.90
15364;DHT22;7781;49.690;6.472;2022-08-02T06:40:10;16.70;99.90
15364;DHT22;7781;49.690;6.472;2022-08-02T06:42:48;16.70;99.90
15364;DHT22;7781;49.690;6.472;2022-08-02T06:45:18;16.80;99.90
15364;DHT22;7781;49.690;6.472;2022-08-02T06:47:48;16.90;99.90
15364;DHT22;7781;49.690;6.472;2022-08-02T06:50:16;17.00;99.90
15364;DHT22;7781;49.690;6.472;2022-08-02T06:52:44;17.10;99.90
15364;DHT22;7781;49.690;6.472;2022-08-02T06:55:12;17.20;99.90
15364;DHT22;7781;49.690;6.472;2022-08-02T06:57:40;17.30;99.90
15364;DHT22;7781;49.690;6.472;2022-08-02T07:00:10;17.40;99.90
15364;DHT22;7781;49.690;6.472;2022-08-02T07:02:38;17.50;99.90
15364;DHT22;7781;49.690;6.472;2022-08-02T07:05:08;17.70;99.90
15364;DHT22;7781;49.690;6.472;2022-08-02T07:07:37;17.80;99.90
15364;DHT22;7781;49.690;6.472;2022-08-02T07:10:05;17.90;99.90
15364;DHT22;7781;49.690;6.472;2022-08-02T07:12:35;18.00;99.90
15364;DHT22;7781;49.690;6.472;2022-08-02T07:15:06;18.20;99.90
15364;DHT22;7781;49.690;6.472;2022-08-02T07:17:35;18.30;99.90
15364;DHT22;7781;49.690;6.472;2022-08-02T07:20:05;18.30;99.90
15364;DHT22;7781;49.690;6.472;2022-08-02T07:22:35;18.50;99.90
15364;DHT22;7781;49.690;6.472;2022-08-02T07:25:04;18.50;99.90
15364;DHT22;7781;49.690;6.472;2022-08-02T07:27:33;18.60;99.90
15364;DHT22;7781;49.690;6.472;2022-08-02T07:30:01;18.70;99.90
15364;DHT22;7781;49.690;6.472;2022-08-02T07:32:30;18.80;99.90
15364;DHT22;7781;49.690;6.472;2022-08-02T07:34:59;18.90;99.90
15364;DHT22;7781;49.690;6.472;2022-08-02T07:37:35;19.00;99.90
15364;DHT22;7781;49.690;6.472;2022-08-02T07:40:25;19.10;99.90
15364;DHT22;7781;49.690;6.472;2022-08-02T07:42:55;19.20;99.90
15364;DHT22;7781;49.690;6.472;2022-08-02T07:45:30;19.30;99.90
15364;DHT22;7781;49.690;6.472;2022-08-02T07:48:01;19.40;99.90
15364;DHT22;7781;49.690;6.472;2022-08-02T07:50:29;19.50;99.90
15364;DHT22;7781;49.690;6.472;2022-08-02T07:52:59;19.60;99.90
15364;DHT22;7781;49.690;6.472;2022-08-02T07:55:27;19.70;99.90
15364;DHT22;7781;49.690;6.472;2022-08-02T07:58:07;19.80;99.90
15364;DHT22;7781;49.690;6.472;2022-08-02T08:00:41;19.90;99.90
15364;DHT22;7781;49.690;6.472;2022-08-02T08:03:09;19.90;99.90
15364;DHT22;7781;49.690;6.472;2022-08-02T08:05:38;20.00;99.90
15364;DHT22;7781;49.690;6.472;2022-08-02T08:08:07;20.10;99.90
15364;DHT22;7781;49.690;6.472;2022-08-02T08:10:43;20.20;99.90
15364;DHT22;7781;49.690;6.472;2022-08-02T08:13:11;20.30;99.90
15364;DHT22;7781;49.690;6.472;2022-08-02T08:15:39;20.40;99.90
15364;DHT22;7781;49.690;6.472;2022-08-02T08:18:15;20.60;99.90
15364;DHT22;7781;49.690;6.472;2022-08-02T08:20:43;20.80;99.90
15364;DHT22;7781;49.690;6.472;2022-08-02T08:23:13;20.90;99.90
15364;DHT22;7781;49.690;6.472;2022-08-02T08:25:41;21.10;99.90
15364;DHT22;7781;49.690;6.472;2022-08-02T08:28:11;21.20;99.90
15364;DHT22;7781;49.690;6.472;2022-08-02T08:30:39;21.40;99.90
15364;DHT22;7781;49.690;6.472;2022-08-02T08:33:08;21.60;95.10
15364;DHT22;7781;49.690;6.472;2022-08-02T08:35:36;21.80;50.10
15364;DHT22;7781;49.690;6.472;2022-08-02T08:38:04;21.90;44.20
15364;DHT22;7781;49.690;6.472;2022-08-02T08:40:35;22.00;36.90
15364;DHT22;7781;49.690;6.472;2022-08-02T08:43:04;22.20;31.10
15364;DHT22;7781;49.690;6.472;2022-08-02T08:45:32;22.30;29.60
15364;DHT22;7781;49.690;6.472;2022-08-02T08:48:05;22.50;28.20
15364;DHT22;7781;49.690;6.472;2022-08-02T08:50:35;22.50;27.10
15364;DHT22;7781;49.690;6.472;2022-08-02T08:53:07;22.60;29.40
15364;DHT22;7781;49.690;6.472;2022-08-02T08:55:41;22.60;28.70
15364;DHT22;7781;49.690;6.472;2022-08-02T08:58:11;22.80;23.20
15364;DHT22;7781;49.690;6.472;2022-08-02T09:00:39;23.10;11.20
15364;DHT22;7781;49.690;6.472;2022-08-02T09:03:08;23.30;4.60
15364;DHT22;7781;49.690;6.472;2022-08-02T09:05:38;23.60;1.00
15364;DHT22;7781;49.690;6.472;2022-08-02T09:08:07;23.80;1.00
15364;DHT22;7781;49.690;6.472;2022-08-02T09:10:45;24.00;1.00
15364;DHT22;7781;49.690;6.472;2022-08-02T09:13:15;24.30;1.00
15364;DHT22;7781;49.690;6.472;2022-08-02T09:16:06;24.50;1.00
15364;DHT22;7781;49.690;6.472;2022-08-02T09:18:40;24.70;1.00
15364;DHT22;7781;49.690;6.472;2022-08-02T09:21:10;24.80;1.00
15364;DHT22;7781;49.690;6.472;2022-08-02T09:23:39;24.90;1.00
15364;DHT22;7781;49.690;6.472;2022-08-02T09:26:11;25.00;1.00
15364;DHT22;7781;49.690;6.472;2022-08-02T09:28:40;25.00;1.00
15364;DHT22;7781;49.690;6.472;2022-08-02T09:31:11;25.00;1.00
15364;DHT22;7781;49.690;6.472;2022-08-02T09:33:41;25.30;1.00
15364;DHT22;7781;49.690;6.472;2022-08-02T09:36:11;25.50;1.00
15364;DHT22;7781;49.690;6.472;2022-08-02T09:38:40;25.70;1.00
15364;DHT22;7781;49.690;6.472;2022-08-02T09:41:24;25.90;1.00
15364;DHT22;7781;49.690;6.472;2022-08-02T09:43:53;26.10;1.00
15364;DHT22;7781;49.690;6.472;2022-08-02T09:46:33;26.10;1.00
15364;DHT22;7781;49.690;6.472;2022-08-02T09:49:06;26.20;1.00
15364;DHT22;7781;49.690;6.472;2022-08-02T09:51:37;26.10;1.00
15364;DHT22;7781;49.690;6.472;2022-08-02T09:54:06;26.00;1.00
15364;DHT22;7781;49.690;6.472;2022-08-02T09:56:42;26.00;1.00
15364;DHT22;7781;49.690;6.472;2022-08-02T09:59:12;25.90;1.00
15364;DHT22;7781;49.690;6.472;2022-08-02T10:01:41;26.00;1.00
15364;DHT22;7781;49.690;6.472;2022-08-02T10:04:19;26.10;1.00
15364;DHT22;7781;49.690;6.472;2022-08-02T10:06:51;26.00;1.00
15364;DHT22;7781;49.690;6.472;2022-08-02T10:09:20;26.20;1.00
15364;DHT22;7781;49.690;6.472;2022-08-02T10:11:50;26.40;1.00
15364;DHT22;7781;49.690;6.472;2022-08-02T10:14:19;26.50;1.00
15364;DHT22;7781;49.690;6.472;2022-08-02T10:16:50;26.70;1.00
15364;DHT22;7781;49.690;6.472;2022-08-02T10:19:20;26.90;1.00
15364;DHT22;7781;49.690;6.472;2022-08-02T10:22:11;27.00;1.00
15364;DHT22;7781;49.690;6.472;2022-08-02T10:24:41;27.20;1.00
15364;DHT22;7781;49.690;6.472;2022-08-02T10:27:17;27.30;1.00
15364;DHT22;7781;49.690;6.472;2022-08-02T10:29:48;27.40;1.00
15364;DHT22;7781;49.690;6.472;2022-08-02T10:32:26;27.60;1.00
15364;DHT22;7781;49.690;6.472;2022-08-02T10:34:59;27.70;1.00
15364;DHT22;7781;49.690;6.472;2022-08-02T10:37:51;27.70;1.00
15364;DHT22;7781;49.690;6.472;2022-08-02T10:40:20;27.80;1.00
15364;DHT22;7781;49.690;6.472;2022-08-02T10:42:55;27.90;1.00
15364;DHT22;7781;49.690;6.472;2022-08-02T10:45:26;28.00;1.00
15364;DHT22;7781;49.690;6.472;2022-08-02T10:47:59;28.20;1.00
15364;DHT22;7781;49.690;6.472;2022-08-02T10:50:51;28.40;1.00
15364;DHT22;7781;49.690;6.472;2022-08-02T10:53:23;28.40;1.00
15364;DHT22;7781;49.690;6.472;2022-08-02T10:55:52;28.40;1.00
15364;DHT22;7781;49.690;6.472;2022-08-02T10:58:24;28.50;1.00
15364;DHT22;7781;49.690;6.472;2022-08-02T11:00:56;28.60;1.00
15364;DHT22;7781;49.690;6.472;2022-08-02T11:03:35;28.80;1.00
15364;DHT22;7781;49.690;6.472;2022-08-02T11:06:08;28.80;1.00
15364;DHT22;7781;49.690;6.472;2022-08-02T11:09:25;29.00;1.00
15364;DHT22;7781;49.690;6.472;2022-08-02T11:12:00;29.00;1.00
15364;DHT22;7781;49.690;6.472;2022-08-02T11:14:31;29.30;1.00
15364;DHT22;7781;49.690;6.472;2022-08-02T11:17:14;29.60;1.00
15364;DHT22;7781;49.690;6.472;2022-08-02T11:20:14;29.60;1.00
15364;DHT22;7781;49.690;6.472;2022-08-02T11:22:44;28.90;1.00
15364;DHT22;7781;49.690;6.472;2022-08-02T11:25:32;29.30;1.00
15364;DHT22;7781;49.690;6.472;2022-08-02T11:28:21;29.90;1.00
15364;DHT22;7781;49.690;6.472;2022-08-02T11:31:00;30.20;1.00
15364;DHT22;7781;49.690;6.472;2022-08-02T11:33:30;30.20;1.00
15364;DHT22;7781;49.690;6.472;2022-08-02T11:36:03;30.20;1.00
15364;DHT22;7781;49.690;6.472;2022-08-02T11:38:32;30.10;1.00
15364;DHT22;7781;49.690;6.472;2022-08-02T11:41:00;30.20;1.00
15364;DHT22;7781;49.690;6.472;2022-08-02T11:43:36;30.60;1.00
15364;DHT22;7781;49.690;6.472;2022-08-02T11:46:11;30.80;1.00
15364;DHT22;7781;49.690;6.472;2022-08-02T11:48:41;30.60;1.00
15364;DHT22;7781;49.690;6.472;2022-08-02T11:51:12;30.90;1.00
15364;DHT22;7781;49.690;6.472;2022-08-02T11:53:41;31.20;1.00
15364;DHT22;7781;49.690;6.472;2022-08-02T11:56:10;31.50;1.00
15364;DHT22;7781;49.690;6.472;2022-08-02T11:58:39;31.70;1.00
15364;DHT22;7781;49.690;6.472;2022-08-02T12:01:09;31.60;1.00
15364;DHT22;7781;49.690;6.472;2022-08-02T12:03:38;31.70;1.00
15364;DHT22;7781;49.690;6.472;2022-08-02T12:06:07;32.00;1.00
15364;DHT22;7781;49.690;6.472;2022-08-02T12:08:43;32.30;1.00
15364;DHT22;7781;49.690;6.472;2022-08-02T12:11:20;32.70;1.00
15364;DHT22;7781;49.690;6.472;2022-08-02T12:13:48;33.00;1.00
15364;DHT22;7781;49.690;6.472;2022-08-02T12:16:34;33.50;1.00
15364;DHT22;7781;49.690;6.472;2022-08-02T12:19:20;33.90;1.00
15364;DHT22;7781;49.690;6.472;2022-08-02T12:22:10;34.10;1.00
15364;DHT22;7781;49.690;6.472;2022-08-02T12:24:41;34.40;1.00
15364;DHT22;7781;49.690;6.472;2022-08-02T12:27:25;34.60;1.00
15364;DHT22;7781;49.690;6.472;2022-08-02T12:29:58;34.80;1.00
15364;DHT22;7781;49.690;6.472;2022-08-02T12:32:28;34.10;1.00
15364;DHT22;7781;49.690;6.472;2022-08-02T12:35:05;33.40;1.00
15364;DHT22;7781;49.690;6.472;2022-08-02T12:37:34;33.20;1.00
15364;DHT22;7781;49.690;6.472;2022-08-02T12:40:19;32.60;1.00
15364;DHT22;7781;49.690;6.472;2022-08-02T12:42:54;32.30;1.00
15364;DHT22;7781;49.690;6.472;2022-08-02T12:45:24;32.20;1.00
15364;DHT22;7781;49.690;6.472;2022-08-02T12:47:55;32.70;1.00
15364;DHT22;7781;49.690;6.472;2022-08-02T12:50:26;33.30;1.00
15364;DHT22;7781;49.690;6.472;2022-08-02T12:53:06;33.90;1.00
15364;DHT22;7781;49.690;6.472;2022-08-02T12:55:35;34.60;1.00
15364;DHT22;7781;49.690;6.472;2022-08-02T12:58:27;35.10;1.00
15364;DHT22;7781;49.690;6.472;2022-08-02T13:00:57;35.70;1.00
15364;DHT22;7781;49.690;6.472;2022-08-02T13:03:27;35.80;1.00
15364;DHT22;7781;49.690;6.472;2022-08-02T13:06:15;35.10;1.00
15364;DHT22;7781;49.690;6.472;2022-08-02T13:09:12;34.50;1.00
15364;DHT22;7781;49.690;6.472;2022-08-02T13:11:40;34.70;1.00
15364;DHT22;7781;49.690;6.472;2022-08-02T13:14:10;34.90;1.00
15364;DHT22;7781;49.690;6.472;2022-08-02T13:16:39;35.20;1.00
15364;DHT22;7781;49.690;6.472;2022-08-02T13:19:09;34.90;1.00
15364;DHT22;7781;49.690;6.472;2022-08-02T13:21:39;34.60;1.00
15364;DHT22;7781;49.690;6.472;2022-08-02T13:24:27;34.00;1.00
15364;DHT22;7781;49.690;6.472;2022-08-02T13:27:15;33.40;1.00
15364;DHT22;7781;49.690;6.472;2022-08-02T13:29:43;33.50;1.00
15364;DHT22;7781;49.690;6.472;2022-08-02T13:32:11;33.50;1.00
15364;DHT22;7781;49.690;6.472;2022-08-02T13:34:42;33.30;1.00
15364;DHT22;7781;49.690;6.472;2022-08-02T13:37:10;32.90;1.00
15364;DHT22;7781;49.690;6.472;2022-08-02T13:39:38;32.80;1.00
15364;DHT22;7781;49.690;6.472;2022-08-02T13:42:07;33.40;1.00
15364;DHT22;7781;49.690;6.472;2022-08-02T13:44:43;34.00;1.00
15364;DHT22;7781;49.690;6.472;2022-08-02T13:47:11;34.30;1.00
15364;DHT22;7781;49.690;6.472;2022-08-02T13:49:39;34.30;1.00
15364;DHT22;7781;49.690;6.472;2022-08-02T13:52:20;33.90;1.00
15364;DHT22;7781;49.690;6.472;2022-08-02T13:54:48;34.00;1.00
15364;DHT22;7781;49.690;6.472;2022-08-02T13:57:16;34.10;1.00
15364;DHT22;7781;49.690;6.472;2022-08-02T13:59:44;34.30;1.00
15364;DHT22;7781;49.690;6.472;2022-08-02T14:02:25;34.30;1.00
15364;DHT22;7781;49.690;6.472;2022-08-02T14:04:54;34.30;1.00
15364;DHT22;7781;49.690;6.472;2022-08-02T14:07:24;34.10;1.00
15364;DHT22;7781;49.690;6.472;2022-08-02T14:09:52;33.20;1.00
15364;DHT22;7781;49.690;6.472;2022-08-02T14:12:20;33.10;1.00
15364;DHT22;7781;49.690;6.472;2022-08-02T14:14:49;33.60;1.00
15364;DHT22;7781;49.690;6.472;2022-08-02T14:17:17;33.70;1.00
15364;DHT22;7781;49.690;6.472;2022-08-02T14:19:45;33.10;1.00
15364;DHT22;7781;49.690;6.472;2022-08-02T14:22:14;32.50;1.00
15364;DHT22;7781;49.690;6.472;2022-08-02T14:24:43;32.30;1.00
15364;DHT22;7781;49.690;6.472;2022-08-02T14:27:11;32.20;1.00
15364;DHT22;7781;49.690;6.472;2022-08-02T14:29:41;32.20;1.00
15364;DHT22;7781;49.690;6.472;2022-08-02T14:32:09;32.40;1.00
15364;DHT22;7781;49.690;6.472;2022-08-02T14:34:38;32.60;1.00
15364;DHT22;7781;49.690;6.472;2022-08-02T14:37:06;32.40;1.00
15364;DHT22;7781;49.690;6.472;2022-08-02T14:39:34;32.40;1.00
15364;DHT22;7781;49.690;6.472;2022-08-02T14:42:24;31.70;1.00
15364;DHT22;7781;49.690;6.472;2022-08-02T14:44:52;32.10;1.00
15364;DHT22;7781;49.690;6.472;2022-08-02T14:47:20;32.40;1.00
15364;DHT22;7781;49.690;6.472;2022-08-02T14:49:48;32.60;1.00
15364;DHT22;7781;49.690;6.472;2022-08-02T14:52:17;32.80;1.00
15364;DHT22;7781;49.690;6.472;2022-08-02T14:54:46;33.10;1.00
15364;DHT22;7781;49.690;6.472;2022-08-02T14:57:14;33.00;1.00
15364;DHT22;7781;49.690;6.472;2022-08-02T14:59:44;32.70;1.00
15364;DHT22;7781;49.690;6.472;2022-08-02T15:02:13;32.50;1.00
15364;DHT22;7781;49.690;6.472;2022-08-02T15:04:42;32.40;1.00
15364;DHT22;7781;49.690;6.472;2022-08-02T15:07:11;32.40;1.00
15364;DHT22;7781;49.690;6.472;2022-08-02T15:09:40;32.40;1.00
15364;DHT22;7781;49.690;6.472;2022-08-02T15:12:09;32.70;1.00
15364;DHT22;7781;49.690;6.472;2022-08-02T15:14:38;32.90;1.00
15364;DHT22;7781;49.690;6.472;2022-08-02T15:17:09;33.20;1.00
15364;DHT22;7781;49.690;6.472;2022-08-02T15:19:37;33.40;1.00
15364;DHT22;7781;49.690;6.472;2022-08-02T15:22:26;33.10;1.00
15364;DHT22;7781;49.690;6.472;2022-08-02T15:24:56;32.80;1.00
15364;DHT22;7781;49.690;6.472;2022-08-02T15:27:25;32.60;1.00
15364;DHT22;7781;49.690;6.472;2022-08-02T15:29:53;32.50;1.00
15364;DHT22;7781;49.690;6.472;2022-08-02T15:32:27;32.50;1.00
15364;DHT22;7781;49.690;6.472;2022-08-02T15:34:55;32.40;1.00
15364;DHT22;7781;49.690;6.472;2022-08-02T15:37:23;32.20;1.00
15364;DHT22;7781;49.690;6.472;2022-08-02T15:39:57;32.00;1.00
15364;DHT22;7781;49.690;6.472;2022-08-02T15:42:25;31.90;1.00
15364;DHT22;7781;49.690;6.472;2022-08-02T15:44:57;31.90;1.00
15364;DHT22;7781;49.690;6.472;2022-08-02T15:47:28;31.70;1.00
15364;DHT22;7781;49.690;6.472;2022-08-02T15:49:56;31.70;1.00
15364;DHT22;7781;49.690;6.472;2022-08-02T15:52:25;31.60;1.00
15364;DHT22;7781;49.690;6.472;2022-08-02T15:54:53;31.30;1.00
15364;DHT22;7781;49.690;6.472;2022-08-02T15:57:22;31.10;1.00
15364;DHT22;7781;49.690;6.472;2022-08-02T15:59:50;31.20;1.00
15364;DHT22;7781;49.690;6.472;2022-08-02T16:02:20;31.40;1.00
15364;DHT22;7781;49.690;6.472;2022-08-02T16:04:49;31.50;1.00
15364;DHT22;7781;49.690;6.472;2022-08-02T16:07:17;31.40;1.00
15364;DHT22;7781;49.690;6.472;2022-08-02T16:09:46;31.30;1.00
15364;DHT22;7781;49.690;6.472;2022-08-02T16:12:14;31.20;1.00
15364;DHT22;7781;49.690;6.472;2022-08-02T16:14:43;31.00;1.00
15364;DHT22;7781;49.690;6.472;2022-08-02T16:17:11;30.80;1.00
15364;DHT22;7781;49.690;6.472;2022-08-02T16:19:39;30.80;1.00
15364;DHT22;7781;49.690;6.472;2022-08-02T16:22:17;30.80;1.00